createdAt,value
2022-12-01T00:00:00.596Z,23.60
2022-12-01T00:02:30.687Z,23.70
2022-12-01T00:04:59.368Z,23.80
2022-12-01T00:07:27.675Z,23.90
2022-12-01T00:09:57.752Z,23.90
2022-12-01T00:12:26.280Z,24.00
2022-12-01T00:14:54.828Z,23.80
2022-12-01T00:17:24.807Z,23.60
2022-12-01T00:19:53.430Z,23.40
2022-12-01T00:22:21.725Z,23.50
2022-12-01T00:24:50.110Z,23.60
2022-12-01T00:27:18.547Z,23.70
2022-12-01T00:29:47.557Z,23.80
2022-12-01T00:32:16.244Z,23.90
2022-12-01T00:34:44.446Z,23.90
2022-12-01T00:37:12.798Z,24.00
2022-12-01T00:39:41.243Z,23.80
2022-12-01T00:42:13.257Z,23.60
2022-12-01T00:44:42.098Z,23.40
2022-12-01T00:47:10.193Z,23.50
2022-12-01T00:49:38.424Z,23.60
2022-12-01T00:52:06.806Z,23.70
2022-12-01T00:54:35.299Z,23.80
2022-12-01T00:57:03.527Z,23.80
2022-12-01T00:59:31.985Z,23.90
2022-12-01T01:02:00.375Z,23.90
2022-12-01T01:04:31.450Z,23.70
2022-12-01T01:06:59.744Z,23.60
2022-12-01T01:09:28.149Z,23.40
2022-12-01T01:11:56.792Z,23.50
2022-12-01T01:14:24.993Z,23.60
2022-12-01T01:16:53.300Z,23.70
2022-12-01T01:19:21.569Z,23.80
2022-12-01T01:21:49.975Z,23.90
2022-12-01T01:24:18.670Z,23.90
2022-12-01T01:26:46.741Z,23.90
2022-12-01T01:29:15.126Z,23.70
2022-12-01T01:31:43.378Z,23.50
2022-12-01T01:34:11.640Z,23.50
2022-12-01T01:36:40.134Z,23.50
2022-12-01T01:39:08.372Z,23.60
2022-12-01T01:41:36.609Z,23.70
2022-12-01T01:44:25.021Z,23.80
2022-12-01T01:46:53.422Z,23.90
2022-12-01T01:49:21.626Z,23.90
2022-12-01T01:51:54.222Z,23.80
2022-12-01T01:54:34.334Z,23.60
2022-12-01T01:57:04.390Z,23.50
2022-12-01T01:59:38.162Z,23.50
2022-12-01T02:02:12.788Z,23.50
2022-12-01T02:04:46.269Z,23.60
2022-12-01T02:07:18.220Z,23.80
2022-12-01T02:09:47.173Z,23.80
2022-12-01T02:12:45.934Z,23.90
2022-12-01T02:15:19.969Z,24.00
2022-12-01T02:18:19.672Z,23.80
2022-12-01T02:21:01.063Z,23.50
2022-12-01T02:24:06.475Z,23.40
2022-12-01T02:26:37.516Z,23.50
2022-12-01T02:29:36.418Z,23.60
2022-12-01T02:32:36.342Z,23.70
2022-12-01T02:35:20.101Z,23.80
2022-12-01T02:38:27.809Z,23.90
2022-12-01T02:41:27.928Z,24.00
2022-12-01T02:44:14.405Z,23.60
2022-12-01T02:46:44.681Z,23.50
2022-12-01T02:49:39.910Z,23.40
2022-12-01T02:52:08.616Z,23.50
2022-12-01T02:54:37.455Z,23.60
2022-12-01T02:57:05.821Z,23.70
2022-12-01T02:59:33.936Z,23.80
2022-12-01T03:02:28.433Z,23.80
2022-12-01T03:05:01.417Z,23.90
2022-12-01T03:07:51.130Z,23.80
2022-12-01T03:10:32.791Z,23.60
2022-12-01T03:13:13.282Z,23.40
2022-12-01T03:16:07.064Z,23.50
2022-12-01T03:18:38.120Z,23.50
2022-12-01T03:21:32.959Z,23.60
2022-12-01T03:24:15.007Z,23.70
2022-12-01T03:26:46.928Z,23.80
2022-12-01T03:29:24.177Z,23.80
2022-12-01T03:31:57.544Z,23.80
2022-12-01T03:34:36.253Z,23.60
2022-12-01T03:37:36.927Z,23.40
2022-12-01T03:40:10.850Z,23.40
2022-12-01T03:42:47.275Z,23.50
2022-12-01T03:45:24.818Z,23.60
2022-12-01T03:47:53.962Z,23.70
2022-12-01T03:50:27.618Z,23.70
2022-12-01T03:53:15.394Z,23.80
2022-12-01T03:55:47.442Z,23.90
2022-12-01T03:58:24.791Z,23.80
2022-12-01T04:00:54.162Z,23.60
2022-12-01T04:03:26.339Z,23.40
2022-12-01T04:05:54.922Z,23.40
2022-12-01T04:08:23.134Z,23.50
2022-12-01T04:10:51.291Z,23.60
2022-12-01T04:13:19.594Z,23.60
2022-12-01T04:15:47.869Z,23.80
2022-12-01T04:18:16.305Z,23.80
2022-12-01T04:20:45.863Z,23.90
2022-12-01T04:23:14.401Z,23.90
2022-12-01T04:25:42.733Z,23.70
2022-12-01T04:28:10.909Z,23.40
2022-12-01T04:30:39.191Z,23.40
2022-12-01T04:33:07.558Z,23.50
2022-12-01T04:35:35.624Z,23.50
2022-12-01T04:38:03.770Z,23.70
2022-12-01T04:40:32.070Z,23.70
2022-12-01T04:43:00.346Z,23.80
2022-12-01T04:45:28.515Z,23.80
2022-12-01T04:47:56.678Z,23.90
2022-12-01T04:50:25.084Z,23.80
2022-12-01T04:52:53.388Z,23.50
2022-12-01T04:55:21.535Z,23.40
2022-12-01T04:57:49.829Z,23.40
2022-12-01T05:00:18.202Z,23.40
2022-12-01T05:02:46.610Z,23.60
2022-12-01T05:05:15.036Z,23.60
2022-12-01T05:07:43.292Z,23.70
2022-12-01T05:10:12.070Z,23.80
2022-12-01T05:12:40.387Z,23.80
2022-12-01T05:15:09.413Z,23.90
2022-12-01T05:17:37.610Z,23.70
2022-12-01T05:20:10.191Z,23.50
2022-12-01T05:23:04.437Z,23.40
2022-12-01T05:25:26.685Z,23.40
2022-12-01T05:27:55.172Z,23.60
2022-12-01T05:30:28.387Z,23.60
2022-12-01T05:32:57.419Z,23.70
2022-12-01T05:35:25.877Z,23.80
2022-12-01T05:37:54.177Z,23.80
2022-12-01T05:40:22.421Z,23.90
2022-12-01T05:42:50.708Z,23.80
2022-12-01T05:45:19.084Z,23.60
2022-12-01T05:47:47.360Z,23.40
2022-12-01T05:50:15.601Z,23.40
2022-12-01T05:52:43.700Z,23.50
2022-12-01T05:55:12.192Z,23.50
2022-12-01T05:57:40.483Z,23.60
2022-12-01T06:00:09.444Z,23.70
2022-12-01T06:02:42.136Z,23.80
2022-12-01T06:05:10.868Z,23.80
2022-12-01T06:07:38.702Z,23.90
2022-12-01T06:10:08.608Z,23.80
2022-12-01T06:12:37.144Z,23.50
2022-12-01T06:15:06.568Z,23.40
2022-12-01T06:17:39.913Z,23.50
2022-12-01T06:20:09.420Z,23.50
2022-12-01T06:22:37.523Z,23.60
2022-12-01T06:25:06.977Z,23.60
2022-12-01T06:27:35.595Z,23.70
2022-12-01T06:30:05.373Z,23.80
2022-12-01T06:32:33.617Z,23.80
2022-12-01T06:35:01.934Z,23.90
2022-12-01T06:37:30.084Z,23.60
2022-12-01T06:39:58.740Z,23.50
2022-12-01T06:42:30.932Z,23.40
2022-12-01T06:44:59.311Z,23.40
2022-12-01T06:47:28.277Z,23.50
2022-12-01T06:49:56.491Z,23.60
2022-12-01T06:52:24.663Z,23.70
2022-12-01T06:54:53.147Z,23.70
2022-12-01T06:57:21.697Z,23.80
2022-12-01T06:59:50.782Z,23.80
2022-12-01T07:02:19.490Z,23.80
2022-12-01T07:04:47.765Z,23.50
2022-12-01T07:16:22.051Z,23.80
2022-12-01T07:18:50.203Z,23.90
2022-12-01T07:21:18.294Z,23.80
2022-12-01T07:23:46.540Z,23.80
2022-12-01T07:26:17.355Z,23.80
2022-12-01T07:28:46.050Z,23.80
2022-12-01T07:31:17.089Z,23.90
2022-12-01T07:33:46.186Z,23.60
2022-12-01T07:36:17.304Z,23.30
2022-12-01T07:38:45.857Z,23.40
2022-12-01T07:41:16.510Z,23.40
2022-12-01T07:43:45.841Z,23.50
2022-12-01T07:46:22.223Z,23.60
2022-12-01T07:48:51.893Z,23.60
2022-12-01T07:51:20.870Z,23.70
2022-12-01T07:53:50.671Z,23.80
2022-12-01T07:56:20.854Z,23.80
2022-12-01T07:58:49.611Z,23.80
2022-12-01T08:01:22.025Z,23.60
2022-12-01T08:03:52.760Z,23.30
2022-12-01T08:06:22.158Z,23.30
2022-12-01T08:08:51.011Z,23.40
2022-12-01T08:11:20.808Z,23.50
2022-12-01T08:13:49.972Z,23.60
2022-12-01T08:16:20.606Z,23.60
2022-12-01T08:18:49.404Z,23.70
2022-12-01T08:21:20.380Z,23.80
2022-12-01T08:23:49.483Z,23.80
2022-12-01T08:26:20.185Z,23.80
2022-12-01T08:28:48.941Z,23.50
2022-12-01T08:31:26.416Z,23.30
2022-12-01T08:33:56.636Z,23.30
2022-12-01T08:36:25.631Z,23.40
2022-12-01T08:38:56.080Z,23.40
2022-12-01T08:41:24.880Z,23.50
2022-12-01T08:43:58.324Z,23.60
2022-12-01T08:46:32.126Z,23.70
2022-12-01T08:49:01.182Z,23.80
2022-12-01T08:51:29.715Z,23.80
2022-12-01T08:53:58.430Z,23.80
2022-12-01T08:56:28.748Z,23.20
2022-12-01T08:58:58.349Z,22.70
2022-12-01T09:01:28.755Z,22.90
2022-12-01T09:04:02.043Z,23.20
2022-12-01T09:06:30.617Z,23.50
2022-12-01T09:09:00.528Z,23.80
2022-12-01T09:11:28.923Z,23.90
2022-12-01T09:13:57.246Z,24.20
2022-12-01T09:16:25.813Z,24.30
2022-12-01T09:18:53.839Z,24.40
2022-12-01T09:21:25.307Z,24.50
2022-12-01T09:23:54.372Z,24.50
2022-12-01T09:26:24.137Z,24.60
2022-12-01T09:29:06.506Z,24.60
2022-12-01T09:31:35.762Z,24.70
2022-12-01T09:34:06.773Z,24.70
2022-12-01T09:36:37.694Z,24.80
2022-12-01T09:39:09.427Z,24.80
2022-12-01T09:41:44.294Z,24.80
2022-12-01T09:44:16.658Z,24.90
2022-12-01T09:47:28.960Z,24.90
2022-12-01T09:50:11.614Z,24.90
2022-12-01T09:52:54.139Z,25.00
2022-12-01T09:55:24.958Z,25.00
2022-12-01T09:57:56.069Z,25.00
2022-12-01T10:00:36.851Z,25.00
2022-12-01T10:03:25.519Z,25.10
2022-12-01T10:06:26.747Z,25.10
2022-12-01T10:09:23.602Z,25.20
2022-12-01T10:11:56.021Z,25.20
2022-12-01T10:14:24.626Z,25.20
2022-12-01T10:17:29.667Z,25.20
2022-12-01T10:20:05.107Z,25.20
2022-12-01T10:22:58.195Z,25.20
2022-12-01T10:25:38.419Z,25.20
2022-12-01T10:28:50.329Z,25.30
2022-12-01T10:31:57.205Z,25.30
2022-12-01T10:34:33.536Z,25.30
2022-12-01T10:37:03.750Z,25.30
2022-12-01T10:39:39.220Z,25.30
2022-12-01T10:42:26.893Z,25.40
2022-12-01T10:44:56.896Z,25.40
2022-12-01T10:47:27.103Z,25.40
2022-12-01T10:49:56.704Z,25.40
2022-12-01T10:52:41.483Z,25.50
2022-12-01T10:55:25.093Z,25.40
2022-12-01T10:57:55.960Z,25.40
2022-12-01T11:03:26.585Z,25.50
2022-12-01T11:05:58.332Z,25.50
2022-12-01T11:08:32.836Z,25.50
2022-12-01T11:11:01.976Z,25.50
2022-12-01T11:13:34.779Z,25.60
2022-12-01T11:16:07.096Z,25.60
2022-12-01T11:18:42.238Z,25.60
2022-12-01T11:22:00.334Z,25.60
2022-12-01T11:24:48.534Z,25.60
2022-12-01T11:27:21.503Z,25.70
2022-12-01T11:29:56.129Z,25.70
2022-12-01T11:32:24.527Z,25.70
2022-12-01T11:35:00.761Z,25.70
2022-12-01T11:37:39.658Z,25.70
2022-12-01T11:40:33.523Z,25.70
2022-12-01T11:43:06.371Z,25.70
2022-12-01T11:45:40.852Z,25.70
2022-12-01T11:48:13.359Z,25.80
2022-12-01T11:50:45.770Z,25.80
2022-12-01T11:53:34.590Z,25.80
2022-12-01T11:56:24.176Z,25.80
2022-12-01T11:59:00.003Z,25.80
2022-12-01T12:02:03.547Z,25.80
2022-12-01T12:04:48.907Z,25.80
2022-12-01T12:07:36.004Z,25.90
2022-12-01T12:10:22.563Z,25.90
2022-12-01T12:13:21.666Z,25.90
2022-12-01T12:16:06.522Z,25.90
2022-12-01T12:19:03.435Z,25.90
2022-12-01T12:21:34.876Z,25.90
2022-12-01T12:24:19.675Z,25.90
2022-12-01T12:27:16.017Z,25.90
2022-12-01T12:29:58.551Z,26.00
2022-12-01T12:33:02.728Z,25.90
2022-12-01T12:36:16.469Z,26.00
2022-12-01T12:39:21.680Z,26.00
2022-12-01T12:41:55.797Z,26.00
2022-12-01T12:44:45.584Z,26.00
2022-12-01T12:47:39.900Z,26.00
2022-12-01T12:50:17.301Z,26.00
2022-12-01T12:53:12.601Z,26.00
2022-12-01T12:55:50.396Z,26.00
2022-12-01T12:58:24.951Z,26.10
2022-12-01T13:01:23.577Z,26.10
2022-12-01T13:04:10.981Z,26.10
2022-12-01T13:07:08.035Z,26.10
2022-12-01T13:09:53.486Z,26.20
2022-12-01T13:12:31.909Z,26.10
2022-12-01T13:15:04.052Z,26.20
2022-12-01T13:17:37.658Z,26.20
2022-12-01T13:20:08.658Z,26.20
2022-12-01T13:22:38.981Z,26.20
2022-12-01T13:25:07.650Z,26.20
2022-12-01T13:27:44.166Z,26.20
2022-12-01T13:30:23.141Z,26.20
2022-12-01T13:32:59.679Z,26.20
2022-12-01T13:35:45.752Z,26.30
2022-12-01T13:38:26.923Z,26.20
2022-12-01T13:41:14.475Z,26.20
2022-12-01T13:43:54.242Z,26.30
2022-12-01T13:46:24.768Z,26.30
2022-12-01T13:48:55.380Z,26.50
2022-12-01T13:51:25.555Z,26.60
2022-12-01T13:53:58.413Z,26.50
2022-12-01T13:56:41.120Z,26.50
2022-12-01T13:59:34.288Z,26.50
2022-12-01T14:02:22.366Z,26.50
2022-12-01T14:04:53.436Z,26.50
2022-12-01T14:07:30.019Z,26.50
2022-12-01T14:10:28.598Z,26.50
2022-12-01T14:13:05.600Z,26.50
2022-12-01T14:15:39.545Z,26.60
2022-12-01T14:18:23.776Z,26.50
2022-12-01T14:20:54.479Z,26.50
2022-12-01T14:23:45.812Z,26.50
2022-12-01T14:26:23.331Z,26.60
2022-12-01T14:28:58.460Z,26.50
2022-12-01T14:31:48.009Z,26.60
2022-12-01T14:34:25.681Z,26.60
2022-12-01T14:37:05.590Z,26.60
2022-12-01T14:39:38.711Z,26.60
2022-12-01T14:42:15.038Z,26.60
2022-12-01T14:44:50.984Z,26.60
2022-12-01T14:47:37.958Z,26.60
2022-12-01T14:50:20.506Z,26.60
2022-12-01T14:53:03.815Z,26.60
2022-12-01T14:55:52.208Z,26.70
2022-12-01T14:58:25.536Z,26.70
2022-12-01T15:01:06.957Z,26.70
2022-12-01T15:03:40.742Z,26.70
2022-12-01T15:06:09.375Z,26.70
2022-12-01T15:08:43.446Z,26.70
2022-12-01T15:11:22.226Z,26.70
2022-12-01T15:13:54.474Z,26.70
2022-12-01T15:16:32.453Z,26.70
2022-12-01T15:19:00.813Z,26.70
2022-12-01T15:21:30.276Z,26.80
2022-12-01T15:24:02.856Z,26.80
2022-12-01T15:26:37.939Z,26.70
2022-12-01T15:29:35.028Z,26.70
2022-12-01T15:32:16.004Z,26.80
2022-12-01T15:34:46.309Z,26.80
2022-12-01T15:37:24.217Z,26.80
2022-12-01T15:39:57.727Z,26.80
2022-12-01T15:42:35.751Z,26.80
2022-12-01T15:45:16.484Z,26.90
2022-12-01T15:47:46.270Z,26.80
2022-12-01T15:50:29.896Z,26.90
2022-12-01T15:53:00.224Z,26.80
2022-12-01T15:55:34.338Z,26.90
2022-12-01T15:58:09.048Z,26.90
2022-12-01T16:00:40.089Z,26.90
2022-12-01T16:03:14.312Z,26.90
2022-12-01T16:05:44.772Z,26.90
2022-12-01T16:08:20.776Z,26.90
2022-12-01T16:11:08.972Z,26.90
2022-12-01T16:13:39.673Z,26.90
2022-12-01T16:16:31.107Z,26.90
2022-12-01T16:19:00.775Z,27.00
2022-12-01T16:21:30.669Z,27.00
2022-12-01T16:23:59.847Z,27.00
2022-12-01T16:26:29.402Z,27.00
2022-12-01T16:28:58.084Z,27.00
2022-12-01T16:31:27.020Z,27.00
2022-12-01T16:34:18.456Z,27.00
2022-12-01T16:36:52.740Z,27.00
2022-12-01T16:39:21.135Z,27.00
2022-12-01T16:41:50.083Z,27.10
2022-12-01T16:44:28.721Z,27.00
2022-12-01T16:46:58.181Z,27.00
2022-12-01T16:49:26.517Z,27.10
2022-12-01T16:51:56.485Z,27.10
2022-12-01T16:54:25.578Z,27.00
2022-12-01T16:56:53.632Z,27.10
2022-12-01T16:59:21.582Z,27.10
2022-12-01T17:01:50.923Z,27.10
2022-12-01T17:04:21.456Z,27.10
2022-12-01T17:06:49.547Z,27.10
2022-12-01T17:13:45.540Z,27.10
2022-12-01T17:16:18.791Z,27.10
2022-12-01T17:18:47.900Z,27.10
2022-12-01T17:21:16.255Z,27.10
2022-12-01T17:23:45.023Z,27.10
2022-12-01T17:26:17.779Z,27.10
2022-12-01T17:28:46.415Z,27.10
2022-12-01T17:31:14.747Z,27.10
2022-12-01T17:33:43.133Z,27.10
2022-12-01T17:36:13.897Z,27.10
2022-12-01T17:38:44.245Z,27.10
2022-12-01T17:41:21.243Z,27.10
2022-12-01T17:43:51.501Z,27.10
2022-12-01T17:46:20.105Z,27.10
2022-12-01T17:48:49.746Z,27.20
2022-12-01T17:51:19.372Z,27.20
2022-12-01T17:53:48.563Z,27.20
2022-12-01T17:56:21.061Z,27.20
2022-12-01T17:58:50.467Z,27.20
2022-12-01T18:01:24.254Z,27.20
2022-12-01T18:03:59.028Z,27.20
2022-12-01T18:06:27.938Z,27.20
2022-12-01T18:08:56.187Z,27.20
2022-12-01T18:11:25.065Z,27.20
2022-12-01T18:13:54.108Z,27.20
2022-12-01T18:16:26.073Z,27.20
2022-12-01T18:18:56.664Z,27.20
2022-12-01T18:21:26.973Z,27.20
2022-12-01T18:23:57.975Z,27.20
2022-12-01T18:26:27.589Z,27.20
2022-12-01T18:29:04.626Z,27.20
2022-12-01T18:31:33.743Z,27.30
2022-12-01T18:34:03.862Z,27.20
2022-12-01T18:36:34.652Z,27.30
2022-12-01T18:39:04.298Z,27.30
2022-12-01T18:41:32.953Z,27.30
2022-12-01T18:44:01.643Z,27.30
2022-12-01T18:46:30.333Z,27.30
2022-12-01T18:49:00.197Z,27.30
2022-12-01T18:51:30.731Z,27.30
2022-12-01T18:54:00.891Z,27.30
2022-12-01T18:56:31.386Z,27.30
2022-12-01T18:59:06.763Z,27.30
2022-12-01T19:01:40.201Z,27.30
2022-12-01T19:04:09.981Z,27.30
2022-12-01T19:06:40.060Z,27.30
2022-12-01T19:09:10.715Z,27.30
2022-12-01T19:11:40.670Z,27.30
2022-12-01T19:14:15.627Z,27.40
2022-12-01T19:16:44.890Z,27.30
2022-12-01T19:19:13.408Z,27.40
2022-12-01T19:21:41.860Z,27.30
2022-12-01T19:24:12.513Z,27.40
2022-12-01T19:26:41.009Z,27.30
2022-12-01T19:29:09.219Z,27.40
2022-12-01T19:31:37.691Z,27.40
2022-12-01T19:34:06.367Z,27.40
2022-12-01T19:36:35.008Z,27.40
2022-12-01T19:39:06.078Z,27.40
2022-12-01T19:41:38.910Z,27.40
2022-12-01T19:44:07.562Z,27.40
2022-12-01T19:46:35.603Z,27.40
2022-12-01T19:49:04.696Z,27.40
2022-12-01T19:51:36.323Z,27.40
2022-12-01T19:54:06.881Z,27.40
2022-12-01T19:56:35.335Z,27.40
2022-12-01T19:59:03.543Z,27.40
2022-12-01T20:01:31.717Z,27.40
2022-12-01T20:04:00.314Z,27.40
2022-12-01T20:06:30.833Z,27.50
2022-12-01T20:09:01.367Z,27.40
2022-12-01T20:11:30.893Z,27.50
2022-12-01T20:14:00.109Z,27.50
2022-12-01T20:16:30.172Z,27.50
2022-12-01T20:19:02.188Z,27.50
2022-12-01T20:21:36.703Z,27.50
2022-12-01T20:24:07.588Z,27.50
2022-12-01T20:26:44.720Z,27.50
2022-12-01T20:29:18.345Z,27.50
2022-12-01T20:31:47.825Z,27.50
2022-12-01T20:34:19.797Z,27.50
2022-12-01T20:36:48.981Z,27.50
2022-12-01T20:39:18.089Z,27.50
2022-12-01T20:41:47.091Z,27.50
2022-12-01T20:44:19.290Z,27.50
2022-12-01T20:46:47.962Z,27.50
2022-12-01T20:49:18.091Z,27.60
2022-12-01T20:51:51.001Z,27.50
2022-12-01T20:54:29.771Z,27.60
2022-12-01T20:56:59.869Z,27.60
2022-12-01T20:59:28.748Z,27.60
2022-12-01T21:01:57.371Z,27.60
2022-12-01T21:04:26.283Z,27.50
2022-12-01T21:06:58.818Z,27.60
2022-12-01T21:09:27.705Z,27.60
2022-12-01T21:11:59.444Z,27.60
2022-12-01T21:14:45.799Z,27.60
2022-12-01T21:17:46.007Z,27.50
2022-12-01T21:20:20.143Z,27.60
2022-12-01T21:22:50.828Z,27.60
2022-12-01T21:25:24.446Z,27.60
2022-12-01T21:27:56.995Z,27.60
2022-12-01T21:30:25.839Z,27.60
2022-12-01T21:32:54.777Z,27.60
2022-12-01T21:35:25.296Z,27.60
2022-12-01T21:38:04.877Z,27.60
2022-12-01T21:40:33.461Z,27.60
2022-12-01T21:43:06.213Z,27.60
2022-12-01T21:45:34.513Z,27.60
2022-12-01T21:48:19.342Z,27.60
2022-12-01T21:50:53.816Z,27.60
2022-12-01T21:53:25.159Z,27.60
2022-12-01T21:55:56.658Z,27.60
2022-12-01T21:58:27.698Z,27.60
2022-12-01T22:00:59.010Z,27.60
2022-12-01T22:03:45.708Z,27.60
2022-12-01T22:06:30.838Z,27.60
2022-12-01T22:09:03.439Z,27.60
2022-12-01T22:11:32.258Z,27.60
2022-12-01T22:14:06.161Z,27.70
2022-12-01T22:16:38.362Z,27.60
2022-12-01T22:19:38.207Z,27.60
2022-12-01T22:22:13.329Z,27.60
2022-12-01T22:24:42.727Z,27.60
2022-12-01T22:27:25.893Z,27.60
2022-12-01T22:30:06.965Z,27.60
2022-12-01T22:32:57.591Z,27.60
2022-12-01T22:35:29.511Z,27.70
2022-12-01T22:38:07.103Z,27.60
2022-12-01T22:40:51.071Z,27.60
2022-12-01T22:43:19.474Z,27.70
2022-12-01T22:46:03.627Z,27.60
2022-12-01T22:48:44.747Z,27.70
2022-12-01T22:51:24.392Z,27.70
2022-12-01T22:54:04.804Z,27.70
2022-12-01T22:56:40.651Z,27.70
2022-12-01T22:59:36.160Z,27.70
2022-12-01T23:02:23.129Z,27.70
2022-12-01T23:05:02.727Z,27.70
2022-12-01T23:07:36.539Z,27.70
2022-12-01T23:10:26.458Z,27.70
2022-12-01T23:12:57.751Z,27.70
2022-12-01T23:15:38.320Z,27.70
2022-12-01T23:18:17.581Z,27.70
2022-12-01T23:20:49.334Z,27.70
2022-12-01T23:23:26.231Z,27.70
2022-12-01T23:25:54.717Z,27.70
2022-12-01T23:28:23.968Z,27.70
2022-12-01T23:30:57.866Z,27.70
2022-12-01T23:33:36.039Z,27.70
2022-12-01T23:36:06.546Z,27.70
2022-12-01T23:38:41.909Z,27.70
2022-12-01T23:41:34.338Z,27.70
2022-12-01T23:44:09.595Z,27.70
2022-12-01T23:46:38.410Z,27.70
2022-12-01T23:49:12.985Z,27.70
2022-12-01T23:51:50.306Z,27.70
2022-12-01T23:54:29.835Z,27.70
2022-12-01T23:57:02.520Z,27.70
2022-12-01T23:59:31.988Z,27.70
